Time;durP1;ratioP1;P1;durP2;ratioP2;P2;SDS_P1;SDS_P2;PMS_P1;PMS_P2;Temp;Humidity;BMP_temperature;BMP_pressure;BME280_temperature;BME280_humidity;BME280_pressure;Samples;Min_cycle;Max_cycle;Signal;HPM_P1;HPM_P2
2022/04/25 00:01:54;;;;;;;26.57;13.00;;;;;;;-145.18;100.00;60484.78;5034979;28;20067;-69
2022/04/25 00:04:19;;;;;;;21.43;12.17;;;;;;;-145.18;100.00;60484.78;5037205;28;20056;-69
2022/04/25 00:06:45;;;;;;;27.67;12.87;;;;;;;-145.18;100.00;60484.78;5032842;28;20025;-69
2022/04/25 00:09:10;;;;;;;23.93;11.83;;;;;;;-145.18;100.00;60484.78;5031870;28;20056;-69
2022/04/25 00:11:36;;;;;;;22.70;12.83;;;;;;;-145.18;100.00;60484.78;5034087;28;20044;-69
2022/04/25 00:14:01;;;;;;;23.87;12.23;;;;;;;-145.18;100.00;60484.78;5026855;28;20037;-69
2022/04/25 00:16:26;;;;;;;27.57;13.37;;;;;;;-145.18;100.00;60484.78;5030995;28;20075;-69
2022/04/25 00:18:52;;;;;;;26.70;13.00;;;;;;;-145.18;100.00;60484.78;5025168;28;20036;-69
2022/04/25 00:21:17;;;;;;;22.80;12.80;;;;;;;-145.18;100.00;60484.78;5018940;28;20025;-69
2022/04/25 00:23:43;;;;;;;25.83;12.87;;;;;;;-145.18;100.00;60484.78;5010453;28;20075;-69
2022/04/25 00:26:09;;;;;;;22.67;13.07;;;;;;;-145.18;100.00;60484.78;5010083;28;20363;-69
2022/04/25 00:28:34;;;;;;;28.37;13.03;;;;;;;-145.18;100.00;60484.78;5012135;28;20041;-69
2022/04/25 00:31:00;;;;;;;24.87;12.63;;;;;;;-145.18;100.00;60484.78;5010821;28;20092;-69
2022/04/25 00:33:26;;;;;;;21.57;12.43;;;;;;;-145.18;100.00;60484.78;5010505;28;20033;-69
2022/04/25 00:35:52;;;;;;;25.30;12.43;;;;;;;-145.18;100.00;60484.78;5011096;28;20119;-69
2022/04/25 00:38:18;;;;;;;25.83;12.80;;;;;;;-145.18;100.00;60484.78;5012004;28;20044;-69
2022/04/25 00:40:43;;;;;;;23.50;12.60;;;;;;;-145.18;100.00;60484.78;4992757;28;20496;-69
2022/04/25 00:43:08;;;;;;;24.50;12.77;;;;;;;-145.18;100.00;60484.78;5011871;28;20449;-68
2022/04/25 00:45:34;;;;;;;21.67;11.77;;;;;;;-145.18;100.00;60484.78;5025646;28;20053;-69
2022/04/25 00:48:00;;;;;;;26.67;11.80;;;;;;;-145.18;100.00;60484.78;5033198;28;20394;-69
2022/04/25 00:50:26;;;;;;;20.30;10.60;;;;;;;-145.18;100.00;60484.78;5026266;28;20519;-68
2022/04/25 00:52:51;;;;;;;25.13;13.23;;;;;;;-145.18;100.00;60484.78;5014419;28;20037;-69
2022/04/25 00:55:17;;;;;;;23.70;12.40;;;;;;;-145.18;100.00;60484.78;5028744;28;20529;-69
2022/04/25 00:57:43;;;;;;;25.77;13.47;;;;;;;-145.18;100.00;60484.78;5029842;28;20065;-69
2022/04/25 01:00:11;;;;;;;22.97;12.10;;;;;;;-145.18;100.00;60484.78;5023123;28;20033;-69
2022/04/25 01:02:38;;;;;;;26.43;13.67;;;;;;;-145.18;100.00;60484.78;5034082;28;20446;-69
2022/04/25 01:05:05;;;;;;;31.40;13.47;;;;;;;-145.18;100.00;60484.78;5028455;28;20029;-69
2022/04/25 01:07:34;;;;;;;27.67;13.70;;;;;;;-145.18;100.00;60484.78;5046705;28;20146;-69
2022/04/25 01:10:00;;;;;;;26.13;13.27;;;;;;;-145.18;100.00;60484.78;5025481;28;20036;-69
2022/04/25 01:12:26;;;;;;;21.67;11.80;;;;;;;-145.18;100.00;60484.78;5028761;28;20030;-69
2022/04/25 01:15:09;;;;;;;21.37;12.03;;;;;;;-145.18;100.00;60484.78;5020591;28;20042;-69
2022/04/25 01:17:35;;;;;;;24.30;13.67;;;;;;;-145.18;100.00;60484.78;5029532;28;20037;-69
2022/04/25 01:20:02;;;;;;;24.63;13.80;;;;;;;-145.18;100.00;60484.78;5024802;28;20103;-69
2022/04/25 01:22:43;;;;;;;25.37;13.03;;;;;;;-145.18;100.00;60484.78;5033690;28;20100;-69
2022/04/25 01:27:54;;;;;;;25.87;13.67;;;;;;;-145.18;100.00;60484.78;5031036;28;20039;-69
2022/04/25 01:30:20;;;;;;;21.70;11.73;;;;;;;-145.18;100.00;60484.78;5026189;28;20033;-69
2022/04/25 01:32:46;;;;;;;27.33;13.80;;;;;;;-145.18;100.00;60484.78;5040873;28;20527;-69
2022/04/25 01:35:12;;;;;;;25.83;14.10;;;;;;;-145.18;100.00;60484.78;5026825;28;20108;-69
2022/04/25 01:37:37;;;;;;;27.23;12.97;;;;;;;-145.18;100.00;60484.78;5028969;28;20108;-69
2022/04/25 01:40:03;;;;;;;29.63;13.80;;;;;;;-145.18;100.00;60484.78;5023067;28;20408;-69
2022/04/25 01:42:28;;;;;;;25.23;12.63;;;;;;;-145.18;100.00;60484.78;5027455;28;20030;-69
2022/04/25 01:44:54;;;;;;;30.43;13.83;;;;;;;-145.18;100.00;60484.78;5028991;28;20075;-69
2022/04/25 01:47:19;;;;;;;23.33;12.70;;;;;;;-145.18;100.00;60484.78;5027613;28;20379;-69
2022/04/25 01:49:45;;;;;;;26.83;12.57;;;;;;;-145.18;100.00;60484.78;5027870;28;20041;-69
2022/04/25 01:52:32;;;;;;;21.43;13.07;;;;;;;-145.18;100.00;60484.78;5043705;28;20033;-69
2022/04/25 01:54:59;;;;;;;23.23;12.87;;;;;;;-145.18;100.00;60484.78;5021528;28;20104;-69
2022/04/25 01:57:25;;;;;;;25.27;13.33;;;;;;;-145.18;100.00;60484.78;5037447;28;20032;-69
2022/04/25 01:59:51;;;;;;;23.03;13.27;;;;;;;-145.18;100.00;60484.78;5013717;28;20021;-69
2022/04/25 02:02:17;;;;;;;23.50;12.30;;;;;;;-145.18;100.00;60484.78;5025884;28;20021;-69
2022/04/25 02:04:43;;;;;;;21.67;12.90;;;;;;;-145.18;100.00;60484.78;5026727;28;20104;-69
2022/04/25 02:07:09;;;;;;;24.20;12.70;;;;;;;-145.18;100.00;60484.78;5027481;28;20506;-69
2022/04/25 02:09:36;;;;;;;24.57;13.00;;;;;;;-145.18;100.00;60484.78;5029006;28;20021;-69
2022/04/25 02:12:03;;;;;;;20.57;11.97;;;;;;;-145.18;100.00;60484.78;5026576;28;20029;-69
2022/04/25 02:14:29;;;;;;;21.57;12.10;;;;;;;-145.18;100.00;60484.78;5025417;28;20396;-69
2022/04/25 02:16:59;;;;;;;21.33;12.03;;;;;;;-145.18;100.00;60484.78;5027525;28;20366;-69
2022/04/25 02:19:29;;;;;;;26.87;12.27;;;;;;;-145.18;100.00;60484.78;5024137;28;20068;-69
2022/04/25 02:21:55;;;;;;;24.83;12.13;;;;;;;-145.18;100.00;60484.78;5024436;28;20048;-69
2022/04/25 02:24:21;;;;;;;19.90;11.03;;;;;;;-145.18;100.00;60484.78;5040797;28;20028;-70
2022/04/25 02:26:48;;;;;;;18.17;10.77;;;;;;;-145.18;100.00;60484.78;5036416;28;20029;-70
2022/04/25 02:29:14;;;;;;;18.33;11.27;;;;;;;-145.18;100.00;60484.78;5031047;28;20036;-70
2022/04/25 02:31:39;;;;;;;24.17;11.80;;;;;;;-145.18;100.00;60484.78;5028840;28;20481;-70
2022/04/25 02:34:04;;;;;;;19.17;10.90;;;;;;;-145.18;100.00;60484.78;5034904;28;20021;-70
2022/04/25 02:36:30;;;;;;;26.37;12.67;;;;;;;-145.18;100.00;60484.78;5028521;28;20618;-70
2022/04/25 02:38:55;;;;;;;23.07;11.60;;;;;;;-145.18;100.00;60484.78;5022858;28;20029;-70
2022/04/25 02:41:20;;;;;;;20.87;10.27;;;;;;;-145.18;100.00;60484.78;5035011;28;20033;-70
2022/04/25 02:43:46;;;;;;;20.93;10.87;;;;;;;-145.18;100.00;60484.78;5031595;28;20040;-70
2022/04/25 02:46:14;;;;;;;19.83;10.13;;;;;;;-145.18;100.00;60484.78;5030382;28;20029;-69
2022/04/25 02:48:41;;;;;;;27.23;11.60;;;;;;;-145.18;100.00;60484.78;5031658;28;20420;-70
2022/04/25 02:51:08;;;;;;;22.07;11.00;;;;;;;-145.18;100.00;60484.78;5030814;28;20033;-70
2022/04/25 02:53:34;;;;;;;17.43;10.10;;;;;;;-145.18;100.00;60484.78;5031866;28;20029;-69
2022/04/25 02:56:02;;;;;;;20.33;10.90;;;;;;;-145.18;100.00;60484.78;5042795;28;20041;-69
2022/04/25 02:58:29;;;;;;;18.37;10.30;;;;;;;-145.18;100.00;60484.78;5040640;28;20891;-70
2022/04/25 03:00:55;;;;;;;18.10;9.90;;;;;;;-145.18;100.00;60484.78;5030647;28;20028;-70
2022/04/25 03:03:21;;;;;;;18.43;9.83;;;;;;;-145.18;100.00;60484.78;5043040;28;20485;-69
2022/04/25 03:05:49;;;;;;;22.80;10.57;;;;;;;-145.18;100.00;60484.78;5024019;28;20021;-70
2022/04/25 03:08:17;;;;;;;20.13;10.37;;;;;;;-145.18;100.00;60484.78;5032182;28;20474;-69
2022/04/25 03:10:43;;;;;;;18.17;9.93;;;;;;;-145.18;100.00;60484.78;5029298;28;20021;-70
2022/04/25 03:13:10;;;;;;;22.40;10.97;;;;;;;-145.18;100.00;60484.78;5031942;28;20025;-69
2022/04/25 03:15:39;;;;;;;16.73;9.50;;;;;;;-145.18;100.00;60484.78;5020362;28;20044;-69
2022/04/25 03:18:07;;;;;;;17.33;10.03;;;;;;;-145.18;100.00;60484.78;5031693;28;20026;-69
2022/04/25 03:20:33;;;;;;;19.50;10.30;;;;;;;-145.18;100.00;60484.78;5028058;28;20032;-70
2022/04/25 03:22:58;;;;;;;20.20;9.77;;;;;;;-145.18;100.00;60484.78;5032041;28;20382;-70
2022/04/25 03:25:24;;;;;;;17.97;9.30;;;;;;;-145.18;100.00;60484.78;5025048;28;20029;-69
2022/04/25 03:27:50;;;;;;;18.07;9.80;;;;;;;-145.18;100.00;60484.78;5030834;28;20022;-70
2022/04/25 03:30:16;;;;;;;21.73;10.17;;;;;;;-145.18;100.00;60484.78;5027881;28;20025;-70
2022/04/25 03:32:45;;;;;;;20.07;9.53;;;;;;;-145.18;100.00;60484.78;5038395;28;20112;-70
2022/04/25 03:35:12;;;;;;;16.00;9.50;;;;;;;-145.18;100.00;60484.78;5023500;28;20110;-69
2022/04/25 03:37:38;;;;;;;21.60;10.43;;;;;;;-145.18;100.00;60484.78;5028436;28;20036;-69
2022/04/25 03:40:05;;;;;;;19.93;10.33;;;;;;;-145.18;100.00;60484.78;5030030;28;20481;-69
2022/04/25 03:42:30;;;;;;;20.10;10.33;;;;;;;-145.18;100.00;60484.78;5030998;28;20041;-69
2022/04/25 03:44:56;;;;;;;20.50;10.03;;;;;;;-145.18;100.00;60484.78;5029471;28;20017;-69
2022/04/25 03:47:21;;;;;;;23.03;10.97;;;;;;;-145.18;100.00;60484.78;5031063;28;20397;-69
2022/04/25 03:49:47;;;;;;;21.03;10.60;;;;;;;-145.18;100.00;60484.78;5022756;28;20065;-69
2022/04/25 03:52:12;;;;;;;20.43;11.43;;;;;;;-145.18;100.00;60484.78;5032973;28;20036;-69
2022/04/25 03:57:21;;;;;;;20.97;10.70;;;;;;;-145.18;100.00;60484.78;5012485;28;20040;-70
2022/04/25 03:59:47;;;;;;;20.57;9.80;;;;;;;-145.18;100.00;60484.78;5024202;28;20033;-70
2022/04/25 04:02:12;;;;;;;16.93;9.87;;;;;;;-145.18;100.00;60484.78;5017704;28;20913;-69
2022/04/25 04:04:37;;;;;;;16.20;9.70;;;;;;;-145.18;100.00;60484.78;5023930;28;20036;-70
2022/04/25 04:07:03;;;;;;;22.03;10.63;;;;;;;-145.18;100.00;60484.78;5029279;28;20048;-69
2022/04/25 04:10:02;;;;;;;18.53;11.03;;;;;;;-145.18;100.00;60484.78;5024559;28;20029;-69
2022/04/25 04:12:23;;;;;;;20.83;11.02;;;;;;;-145.18;100.00;60484.78;5016868;28;20046;-69
2022/04/25 04:14:49;;;;;;;20.00;10.43;;;;;;;-145.18;100.00;60484.78;5024118;28;20401;-70
2022/04/25 04:17:17;;;;;;;17.20;9.67;;;;;;;-145.18;100.00;60484.78;5018221;28;20041;-69
2022/04/25 04:19:43;;;;;;;20.63;10.03;;;;;;;-145.18;100.00;60484.78;5016255;28;20029;-70
2022/04/25 04:22:09;;;;;;;21.80;10.87;;;;;;;-145.18;100.00;60484.78;5021877;28;20022;-69
2022/04/25 04:24:35;;;;;;;24.10;11.47;;;;;;;-145.18;100.00;60484.78;5020231;28;20030;-69
2022/04/25 04:27:02;;;;;;;19.87;11.10;;;;;;;-145.18;100.00;60484.78;5001592;28;20117;-69
2022/04/25 04:29:30;;;;;;;18.43;10.00;;;;;;;-145.18;100.00;60484.78;5026748;28;20033;-69
2022/04/25 04:32:14;;;;;;;18.63;9.67;;;;;;;-145.18;100.00;60484.78;5021363;28;20029;-69
2022/04/25 04:34:39;;;;;;;18.70;10.00;;;;;;;-145.18;100.00;60484.78;5023679;28;20037;-69
2022/04/25 04:37:05;;;;;;;21.53;10.30;;;;;;;-145.18;100.00;60484.78;5025014;28;20045;-69
2022/04/25 04:39:34;;;;;;;17.30;9.50;;;;;;;-145.18;100.00;60484.78;5030669;28;20025;-69
2022/04/25 04:41:59;;;;;;;17.87;10.33;;;;;;;-145.18;100.00;60484.78;5028917;28;20087;-70
2022/04/25 04:44:25;;;;;;;24.03;11.33;;;;;;;-145.18;100.00;60484.78;5025321;28;20474;-70
2022/04/25 04:46:50;;;;;;;22.50;10.53;;;;;;;-145.18;100.00;60484.78;5029203;28;20028;-69
2022/04/25 04:49:16;;;;;;;20.67;11.10;;;;;;;-145.18;100.00;60484.78;5025767;28;20125;-69
2022/04/25 04:51:42;;;;;;;20.27;10.53;;;;;;;-145.18;100.00;60484.78;5024658;28;20033;-69
2022/04/25 04:54:07;;;;;;;18.27;10.07;;;;;;;-145.18;100.00;60484.78;5027173;28;20045;-69
2022/04/25 04:56:33;;;;;;;23.77;10.80;;;;;;;-145.18;100.00;60484.78;5022543;28;20037;-69
2022/04/25 04:58:59;;;;;;;18.00;10.47;;;;;;;-145.18;100.00;60484.78;5027287;28;20355;-69
2022/04/25 05:01:26;;;;;;;22.30;9.77;;;;;;;-145.18;100.00;60484.78;5027224;28;20507;-69
2022/04/25 05:03:52;;;;;;;17.07;9.47;;;;;;;-145.18;100.00;60484.78;5030348;28;20085;-69
2022/04/25 05:06:17;;;;;;;17.67;10.33;;;;;;;-145.18;100.00;60484.78;5024729;28;20083;-69
2022/04/25 05:08:42;;;;;;;19.73;10.87;;;;;;;-145.18;100.00;60484.78;5028584;28;20022;-69
2022/04/25 05:11:09;;;;;;;23.73;10.53;;;;;;;-145.18;100.00;60484.78;5011575;28;20076;-70
2022/04/25 05:13:36;;;;;;;18.83;9.77;;;;;;;-145.18;100.00;60484.78;5012926;28;20068;-69
2022/04/25 05:16:03;;;;;;;19.70;10.40;;;;;;;-145.18;100.00;60484.78;5009060;28;20044;-69
2022/04/25 05:18:32;;;;;;;16.07;10.97;;;;;;;-145.18;100.00;60484.78;5027616;28;20047;-69
2022/04/25 05:21:02;;;;;;;18.93;10.40;;;;;;;-145.18;100.00;60484.78;5026204;28;20025;-69
2022/04/25 05:23:28;;;;;;;20.07;10.87;;;;;;;-145.18;100.00;60484.78;5029334;28;20025;-69
2022/04/25 05:25:54;;;;;;;18.70;10.33;;;;;;;-145.18;100.00;60484.78;5028338;28;20028;-69
2022/04/25 05:28:22;;;;;;;20.90;11.03;;;;;;;-145.18;100.00;60484.78;5007897;28;20029;-69
2022/04/25 05:30:48;;;;;;;21.77;11.30;;;;;;;-145.18;100.00;60484.78;5029167;28;20041;-69
2022/04/25 05:33:19;;;;;;;19.23;10.87;;;;;;;-145.18;100.00;60484.78;5029411;28;20120;-69
2022/04/25 05:35:44;;;;;;;19.53;10.80;;;;;;;-145.18;100.00;60484.78;5026298;28;20021;-68
2022/04/25 05:38:11;;;;;;;20.63;11.00;;;;;;;-145.18;100.00;60484.78;5012420;28;20044;-69
2022/04/25 05:40:37;;;;;;;20.73;10.97;;;;;;;-145.18;100.00;60484.78;5009757;28;20661;-69
2022/04/25 05:43:04;;;;;;;19.87;11.23;;;;;;;-145.18;100.00;60484.78;5030513;28;20021;-69
2022/04/25 05:45:31;;;;;;;20.70;11.57;;;;;;;-145.18;100.00;60484.78;5016869;28;20033;-69
2022/04/25 05:47:57;;;;;;;19.87;10.60;;;;;;;-145.18;100.00;60484.78;5024861;28;20055;-69
2022/04/25 05:53:08;;;;;;;19.97;10.10;;;;;;;-145.18;100.00;60484.78;5030039;28;20088;-69
2022/04/25 05:55:33;;;;;;;19.40;10.90;;;;;;;-145.18;100.00;60484.78;5022497;28;20057;-69
2022/04/25 05:58:03;;;;;;;19.37;9.67;;;;;;;-145.18;100.00;60484.78;5031158;28;20060;-69
2022/04/25 06:00:30;;;;;;;16.20;9.50;;;;;;;-145.18;100.00;60484.78;5021839;28;20088;-69
2022/04/25 06:02:56;;;;;;;16.57;9.03;;;;;;;-145.18;100.00;60484.78;5032878;28;20025;-69
2022/04/25 06:05:22;;;;;;;17.70;9.33;;;;;;;-145.18;100.00;60484.78;5031693;28;20025;-69
2022/04/25 06:07:49;;;;;;;19.73;10.13;;;;;;;-145.18;100.00;60484.78;5033967;28;20022;-69
2022/04/25 06:10:17;;;;;;;19.73;9.70;;;;;;;-145.18;100.00;60484.78;5021494;28;20057;-70
2022/04/25 06:12:44;;;;;;;18.03;9.50;;;;;;;-145.18;100.00;60484.78;5017988;28;20036;-69
2022/04/25 06:15:11;;;;;;;19.43;9.37;;;;;;;-145.18;100.00;60484.78;5021466;28;20092;-69
2022/04/25 06:17:37;;;;;;;18.93;8.70;;;;;;;-145.18;100.00;60484.78;5020915;28;20083;-70
2022/04/25 06:20:04;;;;;;;13.60;7.87;;;;;;;-145.18;100.00;60484.78;5023077;28;20389;-69
2022/04/25 06:22:30;;;;;;;19.60;8.93;;;;;;;-145.18;100.00;60484.78;5015889;28;20513;-69
2022/04/25 06:24:55;;;;;;;17.40;8.50;;;;;;;-145.18;100.00;60484.78;5029773;28;20044;-69
2022/04/25 06:27:20;;;;;;;16.87;8.37;;;;;;;-145.18;100.00;60484.78;5032939;28;20034;-69
2022/04/25 06:29:46;;;;;;;15.23;8.50;;;;;;;-145.18;100.00;60484.78;5031931;28;20017;-70
2022/04/25 06:32:12;;;;;;;15.43;8.30;;;;;;;-145.18;100.00;60484.78;5032924;28;20029;-70
2022/04/25 06:34:38;;;;;;;13.03;8.03;;;;;;;-145.18;100.00;60484.78;5029476;28;20021;-70
2022/04/25 06:37:05;;;;;;;14.93;8.00;;;;;;;-145.18;100.00;60484.78;5034050;28;20060;-69
2022/04/25 06:39:31;;;;;;;17.30;8.67;;;;;;;-145.18;100.00;60484.78;5032756;28;20071;-70
2022/04/25 06:41:56;;;;;;;14.03;7.50;;;;;;;-145.18;100.00;60484.78;5033636;28;20509;-70
2022/04/25 06:44:21;;;;;;;11.47;6.87;;;;;;;-145.18;100.00;60484.78;5021935;28;20026;-69
2022/04/25 06:46:47;;;;;;;12.37;7.63;;;;;;;-145.18;100.00;60484.78;5022039;28;20121;-69
2022/04/25 06:49:24;;;;;;;11.87;7.10;;;;;;;-145.18;100.00;60484.78;5029705;28;20056;-70
2022/04/25 06:51:56;;;;;;;14.73;6.80;;;;;;;-145.18;100.00;60484.78;5033207;28;20029;-70
2022/04/25 06:54:24;;;;;;;13.40;6.45;;;;;;;-145.18;100.00;60484.78;5003789;28;20037;-70
2022/04/25 06:56:51;;;;;;;11.97;7.07;;;;;;;-145.18;100.00;60484.78;5029051;28;20626;-70
2022/04/25 06:59:19;;;;;;;13.97;7.50;;;;;;;-145.18;100.00;60484.78;5032982;28;20033;-70
2022/04/25 07:01:44;;;;;;;14.20;7.93;;;;;;;-145.18;100.00;60484.78;5030677;28;20044;-70
2022/04/25 07:04:13;;;;;;;12.60;7.57;;;;;;;-145.18;100.00;60484.78;5027147;28;20042;-70
2022/04/25 07:06:39;;;;;;;13.80;8.40;;;;;;;-145.18;100.00;60484.78;5031788;28;20052;-70
2022/04/25 07:09:06;;;;;;;16.17;9.00;;;;;;;-145.18;100.00;60484.78;5029075;28;20049;-70
2022/04/25 07:11:33;;;;;;;13.47;7.57;;;;;;;-145.18;100.00;60484.78;5023604;28;20044;-70
2022/04/25 07:13:58;;;;;;;14.63;7.77;;;;;;;-145.18;100.00;60484.78;5029916;28;20086;-70
2022/04/25 07:16:25;;;;;;;15.87;7.77;;;;;;;-145.18;100.00;60484.78;5032682;28;20456;-70
2022/04/25 07:18:51;;;;;;;15.63;7.87;;;;;;;-145.18;100.00;60484.78;5032633;28;20025;-70
2022/04/25 07:29:48;;;;;;;16.90;8.70;;;;;;;-145.18;100.00;60484.78;5026417;28;20512;-70
2022/04/25 07:32:14;;;;;;;16.40;8.23;;;;;;;-145.18;100.00;60484.78;5032176;28;20083;-70
2022/04/25 07:34:41;;;;;;;15.47;8.53;;;;;;;-145.18;100.00;60484.78;5025461;28;20029;-69
2022/04/25 07:37:07;;;;;;;16.77;7.97;;;;;;;-145.18;100.00;60484.78;5013221;28;20034;-70
2022/04/25 07:39:32;;;;;;;15.63;8.87;;;;;;;-145.18;100.00;60484.78;5012741;28;20544;-70
2022/04/25 07:41:58;;;;;;;14.40;8.13;;;;;;;-145.18;100.00;60484.78;5029566;28;20094;-69
2022/04/25 07:44:24;;;;;;;14.93;7.70;;;;;;;-145.18;100.00;60484.78;5027941;28;20033;-70
2022/04/25 07:46:50;;;;;;;17.13;8.33;;;;;;;-145.18;100.00;60484.78;5012635;28;20084;-70
2022/04/25 07:49:16;;;;;;;16.13;9.27;;;;;;;-145.18;100.00;60484.78;5028294;28;20044;-70
2022/04/25 07:51:41;;;;;;;14.57;7.40;;;;;;;-145.18;100.00;60484.78;5012938;28;20033;-70
2022/04/25 07:54:08;;;;;;;13.23;7.73;;;;;;;-145.18;100.00;60484.78;5012558;28;20112;-70
2022/04/25 07:56:34;;;;;;;14.17;8.33;;;;;;;-145.18;100.00;60484.78;5012822;28;20133;-70
2022/04/25 07:59:03;;;;;;;17.20;9.03;;;;;;;-145.18;100.00;60484.78;5027379;28;20509;-70
2022/04/25 08:01:29;;;;;;;19.77;9.63;;;;;;;-145.18;100.00;60484.78;5021117;28;20025;-70
2022/04/25 08:03:56;;;;;;;17.47;8.97;;;;;;;-145.18;100.00;60484.78;5031610;28;20033;-70
2022/04/25 08:06:22;;;;;;;18.23;8.77;;;;;;;-145.18;100.00;60484.78;5032045;28;20425;-70
2022/04/25 08:08:52;;;;;;;17.53;8.43;;;;;;;-145.18;100.00;60484.78;5031598;28;20104;-69
2022/04/25 08:11:18;;;;;;;19.73;9.17;;;;;;;-145.18;100.00;60484.78;5032170;28;20037;-70
2022/04/25 08:19:16;;;;;;;17.53;8.87;;;;;;;-145.18;100.00;60484.78;5024612;28;20045;-69
2022/04/25 08:21:45;;;;;;;15.80;8.17;;;;;;;-145.18;100.00;60484.78;5029898;28;20068;-69
2022/04/25 08:24:12;;;;;;;14.13;6.97;;;;;;;-145.18;100.00;60484.78;5030770;28;20044;-69
2022/04/25 08:26:38;;;;;;;21.63;8.37;;;;;;;-145.18;100.00;60484.78;5029589;28;20047;-69
2022/04/25 08:29:04;;;;;;;16.00;8.07;;;;;;;-145.18;100.00;60484.78;5029118;28;20116;-69
2022/04/25 08:31:31;;;;;;;16.03;8.07;;;;;;;-145.18;100.00;60484.78;5020329;28;20465;-69
2022/04/25 08:33:56;;;;;;;16.07;7.50;;;;;;;-145.18;100.00;60484.78;5026824;28;20056;-69
2022/04/25 08:36:22;;;;;;;15.17;7.60;;;;;;;-145.18;100.00;60484.78;5017860;28;20064;-69
2022/04/25 08:38:48;;;;;;;17.03;7.87;;;;;;;-145.18;100.00;60484.78;5023632;28;20025;-69
2022/04/25 08:41:16;;;;;;;16.97;8.10;;;;;;;-145.18;100.00;60484.78;5030872;28;20061;-69
2022/04/25 08:43:42;;;;;;;16.90;8.73;;;;;;;-145.18;100.00;60484.78;5029742;28;20025;-69
2022/04/25 08:46:09;;;;;;;15.60;8.53;;;;;;;-145.18;100.00;60484.78;5012583;28;20029;-69
2022/04/25 08:48:37;;;;;;;18.13;8.50;;;;;;;-145.18;100.00;60484.78;5026150;28;20040;-69
2022/04/25 08:51:04;;;;;;;16.73;8.37;;;;;;;-145.18;100.00;60484.78;5014834;28;20029;-69
2022/04/25 08:53:32;;;;;;;17.77;8.57;;;;;;;-145.18;100.00;60484.78;5030566;28;20417;-69
2022/04/25 08:55:59;;;;;;;17.50;8.97;;;;;;;-145.18;100.00;60484.78;5018336;28;20033;-69
2022/04/25 08:58:26;;;;;;;16.43;8.07;;;;;;;-145.18;100.00;60484.78;5031018;28;20037;-69
2022/04/25 09:00:53;;;;;;;16.07;8.70;;;;;;;-145.18;100.00;60484.78;5027778;28;20477;-69
2022/04/25 09:03:18;;;;;;;17.73;8.27;;;;;;;-145.18;100.00;60484.78;5012980;28;20626;-69
2022/04/25 09:05:44;;;;;;;15.27;7.97;;;;;;;-145.18;100.00;60484.78;5017815;28;20028;-69
2022/04/25 09:08:09;;;;;;;15.80;8.40;;;;;;;-145.18;100.00;60484.78;5030616;28;20532;-69
2022/04/25 09:10:36;;;;;;;20.13;8.30;;;;;;;-145.18;100.00;60484.78;5021971;28;20029;-69
2022/04/25 09:13:01;;;;;;;16.80;8.03;;;;;;;-145.18;100.00;60484.78;5031358;28;20441;-69
2022/04/25 09:15:27;;;;;;;14.60;7.77;;;;;;;-145.18;100.00;60484.78;5017805;28;20050;-69
2022/04/25 09:17:54;;;;;;;15.23;7.43;;;;;;;-145.18;100.00;60484.78;5022466;28;20037;-69
2022/04/25 09:20:20;;;;;;;16.47;8.00;;;;;;;-145.18;100.00;60484.78;5026511;28;20041;-69
2022/04/25 09:22:46;;;;;;;15.57;7.87;;;;;;;-145.18;100.00;60484.78;5029773;28;20040;-69
2022/04/25 09:25:15;;;;;;;15.07;7.70;;;;;;;-145.18;100.00;60484.78;5025599;28;20041;-69
2022/04/25 09:27:42;;;;;;;14.90;7.40;;;;;;;-145.18;100.00;60484.78;5031261;28;20018;-69
2022/04/25 09:30:18;;;;;;;21.70;8.93;;;;;;;-145.18;100.00;60484.78;5019439;28;20026;-68
2022/04/25 09:32:53;;;;;;;20.07;8.50;;;;;;;-145.18;100.00;60484.78;5022643;28;20075;-68
2022/04/25 09:35:40;;;;;;;15.13;8.00;;;;;;;-145.18;100.00;60484.78;5022875;28;20038;-69
2022/04/25 09:38:08;;;;;;;17.37;7.93;;;;;;;-145.18;100.00;60484.78;5005295;28;20076;-69
2022/04/25 09:40:37;;;;;;;14.63;7.93;;;;;;;-145.18;100.00;60484.78;5022625;28;20033;-69
2022/04/25 09:43:15;;;;;;;15.20;7.60;;;;;;;-145.18;100.00;60484.78;5034583;28;20063;-69
2022/04/25 09:45:42;;;;;;;14.23;7.80;;;;;;;-145.18;100.00;60484.78;5016941;28;20037;-69
2022/04/25 09:48:09;;;;;;;14.63;7.33;;;;;;;-145.18;100.00;60484.78;5030691;28;20112;-69
2022/04/25 09:50:34;;;;;;;14.40;7.47;;;;;;;-145.18;100.00;60484.78;5022222;28;20044;-69
2022/04/25 09:53:03;;;;;;;17.00;8.23;;;;;;;-145.18;100.00;60484.78;5034175;28;20029;-69
2022/04/25 09:55:31;;;;;;;14.70;7.73;;;;;;;-145.18;100.00;60484.78;5020428;28;20076;-68
2022/04/25 09:57:57;;;;;;;18.67;8.47;;;;;;;-145.18;100.00;60484.78;5021251;28;20037;-68
2022/04/25 10:00:38;;;;;;;18.10;8.47;;;;;;;-145.18;100.00;60484.78;5031361;28;20120;-68
2022/04/25 10:03:05;;;;;;;16.30;8.30;;;;;;;-145.18;100.00;60484.78;5033408;28;20031;-68
2022/04/25 10:05:46;;;;;;;14.30;6.83;;;;;;;-145.18;100.00;60484.78;5033870;28;20076;-67
2022/04/25 10:08:14;;;;;;;16.42;8.10;;;;;;;-145.18;100.00;60484.78;5034085;28;20041;-68
2022/04/25 10:10:50;;;;;;;14.83;7.93;;;;;;;-145.18;100.00;60484.78;5031498;28;20036;-68
2022/04/25 10:13:17;;;;;;;16.97;7.90;;;;;;;-145.18;100.00;60484.78;5032698;28;20021;-68
2022/04/25 10:15:44;;;;;;;15.33;7.77;;;;;;;-145.18;100.00;60484.78;5023200;28;20022;-68
2022/04/25 10:18:10;;;;;;;16.63;8.23;;;;;;;-145.18;100.00;60484.78;5031600;28;20032;-68
2022/04/25 10:20:37;;;;;;;15.10;7.40;;;;;;;-145.18;100.00;60484.78;5019565;28;20444;-68
2022/04/25 10:23:06;;;;;;;14.43;8.00;;;;;;;-145.18;100.00;60484.78;5025850;28;20037;-68
2022/04/25 10:25:32;;;;;;;14.90;7.13;;;;;;;-145.18;100.00;60484.78;5019266;28;20033;-68
2022/04/25 10:28:11;;;;;;;16.83;7.70;;;;;;;-145.18;100.00;60484.78;5029874;28;20029;-68
2022/04/25 10:30:39;;;;;;;14.20;7.83;;;;;;;-145.18;100.00;60484.78;5027140;28;20033;-68
2022/04/25 10:33:22;;;;;;;18.17;8.17;;;;;;;-145.18;100.00;60484.78;5032408;28;20029;-68
2022/04/25 10:35:50;;;;;;;15.90;7.87;;;;;;;-145.18;100.00;60484.78;5028926;28;20025;-68
2022/04/25 10:38:47;;;;;;;15.63;8.20;;;;;;;-145.18;100.00;60484.78;5033529;28;20029;-68
2022/04/25 10:44:35;;;;;;;17.85;8.10;;;;;;;-145.18;100.00;60484.78;4975492;28;20036;-68
2022/04/25 10:47:07;;;;;;;16.03;7.93;;;;;;;-145.18;100.00;60484.78;5021331;28;20483;-69
2022/04/25 10:49:32;;;;;;;15.05;8.30;;;;;;;-145.18;100.00;60484.78;5032359;28;20033;-69
2022/04/25 10:51:59;;;;;;;14.50;8.17;;;;;;;-145.18;100.00;60484.78;5031982;28;20099;-69
2022/04/25 10:54:28;;;;;;;15.40;8.30;;;;;;;-145.18;100.00;60484.78;5031651;28;20497;-69
2022/04/25 10:57:09;;;;;;;15.03;8.00;;;;;;;-145.18;100.00;60484.78;5031775;28;20034;-69
2022/04/25 10:59:37;;;;;;;15.07;8.87;;;;;;;-145.18;100.00;60484.78;5024716;28;20026;-69
2022/04/25 11:02:20;;;;;;;17.73;8.00;;;;;;;-145.18;100.00;60484.78;5027411;28;20444;-69
2022/04/25 11:04:45;;;;;;;16.60;7.60;;;;;;;-145.18;100.00;60484.78;5024161;28;20395;-69
2022/04/25 11:07:23;;;;;;;13.83;7.20;;;;;;;-145.18;100.00;60484.78;5017533;28;20029;-69
2022/04/25 11:09:50;;;;;;;16.50;8.23;;;;;;;-145.18;100.00;60484.78;5030773;28;20477;-69
2022/04/25 11:12:15;;;;;;;16.03;10.63;;;;;;;-145.18;100.00;60484.78;5031687;28;20032;-69
2022/04/25 11:15:01;;;;;;;15.20;7.10;;;;;;;-145.18;100.00;60484.78;5030959;28;20021;-69
2022/04/25 11:17:28;;;;;;;14.00;6.70;;;;;;;-145.18;100.00;60484.78;5030384;28;20060;-69
2022/04/25 11:19:55;;;;;;;13.73;7.33;;;;;;;-145.18;100.00;60484.78;5029092;28;20025;-69
2022/04/25 11:22:36;;;;;;;14.10;6.80;;;;;;;-145.18;100.00;60484.78;5032588;28;20139;-69
2022/04/25 11:25:37;;;;;;;15.10;6.87;;;;;;;-145.18;100.00;60484.78;5012780;28;20045;-69